Time;durP1;ratioP1;P1;durP2;ratioP2;P2;SDS_P1;SDS_P2;PMS_P1;PMS_P2;Temp;Humidity;BMP_temperature;BMP_pressure;BME280_temperature;BME280_humidity;BME280_pressure;Samples;Min_cycle;Max_cycle;Signal;HPM_P1;HPM_P2
2022/06/23 00:01:01;;;;;;;13.27;7.82;;;23.00;99.90;;;;;;5112164;28;20449;-52
2022/06/23 00:03:33;;;;;;;14.52;8.10;;;23.20;99.90;;;;;;5113573;28;20043;-53
2022/06/23 00:06:04;;;;;;;16.75;7.60;;;23.10;99.90;;;;;;5115394;28;20027;-52
2022/06/23 00:08:30;;;;;;;12.73;7.57;;;23.20;99.90;;;;;;5112922;28;20427;-53
2022/06/23 00:11:00;;;;;;;11.40;7.45;;;23.00;99.90;;;;;;5094486;28;20039;-53
2022/06/23 00:13:36;;;;;;;13.30;7.70;;;23.10;99.90;;;;;;5112698;28;20085;-54
2022/06/23 00:16:03;;;;;;;11.07;7.57;;;23.20;99.90;;;;;;5119764;28;20023;-52
2022/06/23 00:18:37;;;;;;;14.27;6.43;;;23.40;99.90;;;;;;5095167;28;20095;-52
2022/06/23 00:21:18;;;;;;;11.00;6.60;;;23.40;99.90;;;;;;5108646;28;20046;-52
2022/06/23 00:23:50;;;;;;;13.38;6.95;;;23.30;99.90;;;;;;5131019;27;20092;-53
2022/06/23 00:26:19;;;;;;;;;;;23.20;99.90;;;;;;5120913;28;20027;-53
2022/06/23 00:28:47;;;;;;;14.70;7.22;;;22.90;99.90;;;;;;5117502;28;19904;-53
2022/06/23 00:31:27;;;;;;;12.73;7.10;;;22.90;99.90;;;;;;5117296;28;20391;-52
2022/06/23 00:33:54;;;;;;;14.52;7.05;;;23.00;99.90;;;;;;5109314;28;20032;-52
2022/06/23 00:36:36;;;;;;;12.00;6.35;;;23.20;99.90;;;;;;5115906;28;20019;-52
2022/06/23 00:39:22;;;;;;;13.63;6.93;;;23.30;99.90;;;;;;5113427;28;20077;-52
2022/06/23 00:41:48;;;;;;;12.57;6.80;;;23.30;99.90;;;;;;5112006;28;20085;-53
2022/06/23 00:44:27;;;;;;;17.20;6.68;;;23.30;99.90;;;;;;5113806;28;20140;-52
2022/06/23 00:46:55;;;;;;;11.10;7.05;;;23.40;99.90;;;;;;5115058;28;20058;-52
2022/06/23 00:49:57;;;;;;;12.93;7.18;;;23.40;99.90;;;;;;5087118;28;20108;-52
2022/06/23 00:52:31;;;;;;;13.18;6.45;;;23.50;99.90;;;;;;5052886;28;20033;-53
2022/06/23 00:55:01;;;;;;;18.42;7.32;;;23.70;99.90;;;;;;5053185;28;20095;-52
2022/06/23 00:57:33;;;;;;;13.98;7.07;;;23.60;99.90;;;;;;5036653;28;20028;-53
2022/06/23 01:00:21;;;;;;;19.17;8.00;;;23.50;99.90;;;;;;5052458;28;20128;-53
2022/06/23 01:02:56;;;;;;;17.48;7.63;;;23.40;99.90;;;;;;5052073;28;20481;-53
2022/06/23 01:05:34;;;;;;;12.05;7.45;;;23.10;99.90;;;;;;5051834;28;20060;-53
2022/06/23 01:08:19;;;;;;;13.48;7.90;;;22.70;99.90;;;;;;5045948;28;20029;-52
2022/06/23 01:11:09;;;;;;;15.85;8.13;;;22.40;99.90;;;;;;5029422;28;20476;-53
2022/06/23 01:13:39;;;;;;;11.35;8.15;;;22.50;99.90;;;;;;5042402;28;20111;-52
2022/06/23 01:16:23;;;;;;;14.95;7.68;;;22.70;99.90;;;;;;5052576;28;20057;-52
2022/06/23 01:18:55;;;;;;;20.75;8.68;;;22.90;99.90;;;;;;5052517;28;20041;-52
2022/06/23 01:21:39;;;;;;;16.40;8.73;;;22.90;99.90;;;;;;5053097;28;20044;-50
2022/06/23 01:24:39;;;;;;;11.13;8.18;;;22.70;99.90;;;;;;5047880;28;20045;-49
2022/06/23 01:27:33;;;;;;;11.48;4.00;;;22.50;99.90;;;;;;5062306;28;20089;-53
2022/06/23 01:30:09;;;;;;;21.13;9.02;;;;;;;;;;5115374;27;20027;-57
2022/06/23 01:32:42;;;;;;;12.25;8.35;;;;;;;;;;5092745;28;20506;-56
2022/06/23 01:35:08;;;;;;;16.13;9.00;;;21.10;99.90;;;;;;5129468;27;20044;-54
2022/06/23 01:37:42;;;;;;;16.45;9.10;;;21.10;99.90;;;;;;5115035;27;20042;-57
2022/06/23 01:40:23;;;;;;;21.70;9.98;;;21.20;99.90;;;;;;5112810;27;20038;-57
2022/06/23 01:43:13;;;;;;;17.70;8.63;;;21.20;99.90;;;;;;5115248;27;20046;-55
2022/06/23 01:45:57;;;;;;;12.02;8.85;;;21.10;99.90;;;;;;5115051;27;20051;-54
2022/06/23 01:51:35;;;;;;;14.40;9.88;;;21.00;99.90;;;;;;5115072;27;20095;-54
2022/06/23 01:54:11;;;;;;;15.13;10.70;;;20.80;99.90;;;;;;5115881;27;20047;-57
2022/06/23 01:56:43;;;;;;;16.67;10.25;;;20.70;99.90;;;;;;5116676;27;20040;-57
2022/06/23 01:59:22;;;;;;;11.55;9.38;;;20.30;99.90;;;;;;5114952;27;20027;-55
2022/06/23 02:01:56;;;;;;;12.93;9.23;;;20.10;99.90;;;;;;5119155;27;20035;-54
2022/06/23 02:04:32;;;;;;;11.57;8.60;;;20.00;99.90;;;;;;5117945;27;20394;-54
2022/06/23 02:07:23;;;;;;;12.75;9.15;;;19.90;99.90;;;;;;5118800;27;20032;-55
2022/06/23 02:09:52;;;;;;;11.52;8.77;;;19.80;99.90;;;;;;5118128;27;20048;-54
2022/06/23 02:12:53;;;;;;;9.48;7.35;;;20.00;99.90;;;;;;5117685;27;20110;-54
2022/06/23 02:15:58;;;;;;;13.43;9.38;;;19.90;99.90;;;;;;5068118;28;20041;-55
2022/06/23 02:18:35;;;;;;;13.05;8.82;;;20.00;99.90;;;;;;5054509;28;20043;-57
2022/06/23 02:21:24;;;;;;;12.02;8.77;;;20.10;99.90;;;;;;5049256;28;20044;-53
2022/06/23 02:24:07;;;;;;;14.45;8.07;;;20.10;99.90;;;;;;5049693;28;20473;-55
2022/06/23 02:26:41;;;;;;;11.27;7.90;;;20.10;99.90;;;;;;5051935;28;20036;-54
2022/06/23 02:29:15;;;;;;;11.63;7.97;;;20.00;99.90;;;;;;5053698;28;20041;-57
2022/06/23 02:31:46;;;;;;;11.98;8.18;;;19.90;99.90;;;;;;5053405;28;20621;-57
2022/06/23 02:34:16;;;;;;;13.65;8.70;;;19.90;99.90;;;;;;5045959;28;20116;-56
2022/06/23 02:36:42;;;;;;;11.98;8.50;;;20.00;99.90;;;;;;5057879;28;20111;-55
2022/06/23 02:39:28;;;;;;;13.38;9.57;;;20.00;99.90;;;;;;5052973;28;20123;-55
2022/06/23 02:41:57;;;;;;;13.02;8.65;;;20.00;99.90;;;;;;5055653;28;20492;-56
2022/06/23 02:44:35;;;;;;;18.30;10.18;;;20.00;99.90;;;;;;5036739;28;20049;-57
2022/06/23 02:47:15;;;;;;;12.02;9.88;;;20.00;99.90;;;;;;5047949;28;20156;-56
2022/06/23 02:50:12;;;;;;;11.57;9.98;;;20.00;99.90;;;;;;5053743;28;20471;-54
2022/06/23 02:52:44;;;;;;;16.75;10.30;;;20.20;99.90;;;;;;5031744;28;20107;-56
2022/06/23 02:55:28;;;;;;;10.82;9.65;;;20.20;99.90;;;;;;5023778;28;20052;-57
2022/06/23 02:57:59;;;;;;;12.32;9.82;;;20.30;99.90;;;;;;5053550;28;20060;-54
2022/06/23 03:00:48;;;;;;;11.95;10.15;;;20.40;99.90;;;;;;5052830;28;20060;-54
2022/06/23 03:03:19;;;;;;;13.88;10.43;;;20.70;99.90;;;;;;5053203;28;20048;-53
2022/06/23 03:05:55;;;;;;;14.73;11.32;;;20.90;99.90;;;;;;5052159;28;20195;-53
2022/06/23 03:08:25;;;;;;;11.98;10.65;;;20.90;99.90;;;;;;5055129;28;20099;-56
2022/06/23 03:11:02;;;;;;;14.23;10.82;;;20.80;99.90;;;;;;5055558;28;20463;-54
2022/06/23 03:13:55;;;;;;;13.88;10.27;;;20.90;99.90;;;;;;5049586;28;20017;-54
2022/06/23 03:16:41;;;;;;;15.50;10.93;;;20.90;99.90;;;;;;5053956;28;20045;-56
2022/06/23 03:19:12;;;;;;;17.20;10.45;;;20.90;99.90;;;;;;5048170;28;20052;-56
2022/06/23 03:21:43;;;;;;;14.68;11.57;;;20.90;99.90;;;;;;5054477;28;20112;-55
2022/06/23 03:24:21;;;;;;;14.75;11.32;;;21.10;99.90;;;;;;5049593;28;20102;-54
2022/06/23 03:27:00;;;;;;;14.30;10.52;;;21.30;99.90;;;;;;5050483;28;20127;-55
2022/06/23 03:29:40;;;;;;;13.65;9.98;;;21.40;99.90;;;;;;5083810;27;20123;-55
2022/06/23 03:32:08;;;;;;;17.52;10.45;;;21.10;99.90;;;;;;5113832;28;20026;-57
2022/06/23 03:34:43;;;;;;;14.15;10.93;;;20.60;99.90;;;;;;5113367;27;20027;-52
2022/06/23 03:37:17;;;;;;;14.23;11.20;;;20.70;99.90;;;;;;5095596;28;20078;-55
2022/06/23 03:42:43;;;;;;;16.25;11.18;;;21.10;99.90;;;;;;5115553;28;20043;-55
2022/06/23 03:45:21;;;;;;;14.05;10.77;;;21.30;99.90;;;;;;5116673;28;20031;-54
2022/06/23 03:47:58;;;;;;;16.60;9.95;;;21.40;99.90;;;;;;5113405;28;20031;-54
2022/06/23 03:50:48;;;;;;;15.48;10.85;;;21.40;99.90;;;;;;5115402;28;20015;-54
2022/06/23 03:53:32;;;;;;;12.93;9.90;;;21.60;99.90;;;;;;5101735;28;20044;-55
2022/06/23 03:56:20;;;;;;;15.27;11.52;;;21.60;99.90;;;;;;5113556;28;20031;-54
2022/06/23 03:58:57;;;;;;;13.23;11.32;;;21.60;99.90;;;;;;5111884;28;20391;-56
2022/06/23 04:01:35;;;;;;;13.88;10.77;;;21.70;99.90;;;;;;5114037;28;20077;-53
2022/06/23 04:04:16;;;;;;;15.00;10.93;;;21.70;99.90;;;;;;5113924;28;20118;-57
2022/06/23 04:06:47;;;;;;;15.00;12.63;;;21.70;99.90;;;;;;5112773;28;20031;-55
2022/06/23 04:09:25;;;;;;;18.40;11.85;;;21.60;99.90;;;;;;5115319;28;20024;-55
2022/06/23 04:12:05;;;;;;;17.48;11.90;;;21.70;99.90;;;;;;5114533;28;20028;-56
2022/06/23 04:14:46;;;;;;;14.57;11.77;;;21.80;99.90;;;;;;5113915;28;20040;-56
2022/06/23 04:17:26;;;;;;;15.60;12.10;;;21.70;99.90;;;;;;5114774;28;20116;-56
2022/06/23 04:19:59;;;;;;;15.35;12.48;;;21.80;99.90;;;;;;5107280;28;20035;-56
2022/06/23 04:22:49;;;;;;;12.38;10.88;;;21.90;99.90;;;;;;5116176;28;20035;-56
2022/06/23 04:25:21;;;;;;;14.90;10.85;;;22.00;99.90;;;;;;5116723;27;20516;-57
2022/06/23 04:27:59;;;;;;;15.15;11.50;;;22.10;99.90;;;;;;5122537;27;20474;-55
2022/06/23 04:30:35;;;;;;;15.00;12.00;;;21.50;99.90;;;;;;5118610;27;20072;-56
2022/06/23 04:33:04;;;;;;;14.65;12.43;;;21.60;99.90;;;;;;5120416;27;20032;-57
2022/06/23 04:35:33;;;;;;;15.52;11.88;;;21.80;99.90;;;;;;5115641;27;20389;-53
2022/06/23 04:38:11;;;;;;;13.20;11.07;;;21.70;99.90;;;;;;5115921;28;20036;-57
2022/06/23 04:40:45;;;;;;;14.45;11.00;;;22.00;99.90;;;;;;5118596;27;20050;-55
2022/06/23 04:43:19;;;;;;;19.70;12.88;;;22.00;99.90;;;;;;5115661;28;20127;-55
2022/06/23 04:45:51;;;;;;;18.92;14.20;;;22.10;99.90;;;;;;5131386;27;20084;-56
2022/06/23 04:48:47;;;;;;;17.35;13.07;;;22.00;99.90;;;;;;5116721;27;20019;-53
2022/06/23 04:51:12;;;;;;;19.45;12.95;;;22.10;99.90;;;;;;5097513;28;20387;-53
2022/06/23 04:53:47;;;;;;;17.05;13.38;;;22.00;99.90;;;;;;5119230;27;20044;-57
2022/06/23 04:56:35;;;;;;;15.38;11.40;;;22.00;99.90;;;;;;5119173;27;20028;-55
2022/06/23 04:59:14;;;;;;;16.33;12.38;;;21.70;99.90;;;;;;5123251;27;20038;-56
2022/06/23 05:01:43;;;;;;;15.75;13.02;;;21.20;99.90;;;;;;5116022;28;20035;-53
2022/06/23 05:04:25;;;;;;;15.98;13.40;;;21.20;99.90;;;;;;5119467;27;20071;-55
2022/06/23 05:06:57;;;;;;;18.25;13.00;;;21.40;99.90;;;;;;5115320;27;20025;-54
2022/06/23 05:09:35;;;;;;;17.85;12.77;;;21.60;99.90;;;;;;5123050;27;20034;-55
2022/06/23 05:12:05;;;;;;;15.55;11.95;;;21.70;99.90;;;;;;5120176;27;20030;-53
2022/06/23 05:15:17;;;;;;;15.82;12.48;;;21.90;99.90;;;;;;5063386;28;20075;-56
2022/06/23 05:18:01;;;;;;;14.65;12.05;;;22.10;99.90;;;;;;5110258;27;20531;-56
2022/06/23 05:21:04;;;;;;;15.65;12.32;;;22.30;99.90;;;;;;5115541;27;20386;-54
2022/06/23 05:24:05;;;;;;;16.02;12.07;;;22.30;99.90;;;;;;5114880;27;20118;-54
2022/06/23 05:26:39;;;;;;;17.77;13.03;;;22.20;99.90;;;;;;5115173;28;20027;-54
2022/06/23 05:29:23;;;;;;;15.25;11.80;;;22.30;99.90;;;;;;5115505;27;20039;-55
2022/06/23 05:31:54;;;;;;;16.63;11.95;;;22.50;99.90;;;;;;5116087;27;20110;-53
2022/06/23 05:34:30;;;;;;;14.48;11.52;;;22.60;99.90;;;;;;5118632;27;20471;-56
2022/06/23 05:37:24;;;;;;;13.05;11.50;;;22.50;99.90;;;;;;5114248;27;20114;-53
2022/06/23 05:40:14;;;;;;;15.40;11.88;;;22.50;99.90;;;;;;5065313;28;20037;-55
2022/06/23 05:42:45;;;;;;;14.20;11.75;;;22.50;99.90;;;;;;5069470;28;20040;-56
2022/06/23 05:45:24;;;;;;;13.77;11.30;;;22.50;99.90;;;;;;5062693;28;20645;-53
2022/06/23 05:47:50;;;;;;;14.30;11.50;;;22.40;99.90;;;;;;5062333;28;20483;-56
2022/06/23 05:50:23;;;;;;;13.27;11.88;;;22.40;99.90;;;;;;5062726;28;20080;-52
2022/06/23 05:52:59;;;;;;;18.42;11.90;;;22.40;99.90;;;;;;5045085;28;20139;-54
2022/06/23 05:55:33;;;;;;;14.55;11.70;;;22.50;99.90;;;;;;5059414;28;20550;-55
2022/06/23 05:58:29;;;;;;;17.60;11.48;;;22.70;99.90;;;;;;5061872;28;20036;-55
2022/06/23 06:01:04;;;;;;;16.02;11.05;;;;;;;;;;5062165;28;20040;-55
2022/06/23 06:03:35;;;;;;;17.55;11.32;;;;;;;;;;5066583;28;20043;-55
2022/06/23 06:06:01;;;;;;;12.18;10.15;;;23.90;99.90;;;;;;5060857;28;20040;-53
2022/06/23 06:09:35;;;;;;;12.73;10.27;;;;;;;;;;5066964;28;20408;-51
2022/06/23 06:11:24;;;;;;;19.02;11.13;;;;;;;;;;5058043;28;20040;-55
2022/06/23 06:13:50;;;;;;;13.55;9.88;;;;;;;;;;5066799;28;20472;-53
2022/06/23 06:16:16;;;;;;;11.88;9.70;;;;;;;;;;5082635;27;20402;-54
2022/06/23 06:18:44;;;;;;;13.02;10.43;;;;;;;;;;5114458;28;20020;-56
2022/06/23 06:21:11;;;;;;;16.02;10.93;;;;;;;;;;5116967;27;20087;-55
2022/06/23 06:23:52;;;;;;;13.27;9.52;;;;;;;;;;5115969;27;20039;-57
2022/06/23 06:26:21;;;;;;;15.10;9.45;;;;;;;;;;5114263;27;20130;-54
2022/06/23 06:28:47;;;;;;;11.73;8.50;;;;;;;;;;5113996;27;20027;-55
2022/06/23 06:31:22;;;;;;;23.08;11.40;;;;;;;;;;5112657;27;20427;-53
2022/06/23 06:33:51;;;;;;;13.75;11.05;;;;;;;;;;5113695;27;20067;-55
2022/06/23 06:36:38;;;;;;;20.45;11.55;;;;;;;;;;5116596;27;20339;-55
2022/06/23 06:39:08;;;;;;;17.25;13.15;;;;;;;;;;5077671;27;20043;-56
2022/06/23 06:41:34;;;;;;;12.95;10.90;;;;;;;;;;5110618;27;20035;-54
2022/06/23 06:44:02;;;;;;;16.88;11.05;;;;;;;;;;5116942;27;20040;-55
2022/06/23 06:46:28;;;;;;;15.13;9.98;;;;;;;;;;5115913;27;20059;-56
2022/06/23 06:48:54;;;;;;;19.92;10.00;;;;;;;;;;5076628;27;20143;-56
2022/06/23 06:51:22;;;;;;;15.27;10.50;;;;;;;;;;5113762;27;20032;-55
2022/06/23 06:54:02;;;;;;;12.25;10.75;;;;;;;;;;5109332;27;20431;-53
2022/06/23 06:56:43;;;;;;;11.45;9.27;;;;;;;;;;5111263;27;20043;-56
2022/06/23 06:59:22;;;;;;;14.50;9.18;;;;;;;;;;5117894;27;20028;-56
2022/06/23 07:01:56;;;;;;;12.02;9.48;;;;;;;;;;5119847;27;20062;-56
2022/06/23 07:04:25;;;;;;;11.13;8.68;;;;;;;;;;5112133;27;20608;-51
2022/06/23 07:06:55;;;;;;;15.95;9.13;;;;;;;;;;5118621;27;20114;-57
2022/06/23 07:09:26;;;;;;;11.82;9.18;;;;;;;;;;5117345;27;20523;-53
2022/06/23 07:11:52;;;;;;;10.57;8.30;;;;;;;;;;5112396;28;20047;-52
2022/06/23 07:14:18;;;;;;;12.20;8.27;;;;;;;;;;5115587;27;20023;-54
2022/06/23 07:16:48;;;;;;;11.85;9.13;;;;;;;;;;5119959;27;20118;-56
2022/06/23 07:19:34;;;;;;;11.68;8.35;;;;;;;;;;5115741;27;20428;-54
2022/06/23 07:22:05;;;;;;;13.20;9.23;;;24.80;99.90;;;;;;5108851;27;20051;-53
2022/06/23 07:24:53;;;;;;;13.73;10.00;;;25.00;99.90;;;;;;5113905;27;20039;-54
2022/06/23 07:27:19;;;;;;;12.98;9.68;;;24.90;99.90;;;;;;5114390;27;20047;-53
2022/06/23 07:30:05;;;;;;;14.95;11.45;;;24.90;99.90;;;;;;5115197;27;20019;-55
2022/06/23 07:32:36;;;;;;;14.70;9.80;;;;;;;;;;5049820;28;20071;-55
2022/06/23 07:35:11;;;;;;;11.05;9.55;;;25.10;99.90;;;;;;5046349;28;20041;-52
2022/06/23 07:37:44;;;;;;;11.25;9.45;;;25.30;99.90;;;;;;5041821;28;20504;-56
2022/06/23 07:40:12;;;;;;;12.05;9.27;;;25.60;99.90;;;;;;5049048;28;20028;-54
2022/06/23 07:42:51;;;;;;;10.68;9.57;;;25.60;99.90;;;;;;5064299;28;20037;-53
2022/06/23 07:45:37;;;;;;;13.25;8.93;;;;;;;;;;5047520;28;20029;-52
2022/06/23 07:48:03;;;;;;;12.02;8.73;;;;;;;;;;5050106;28;20595;-53
2022/06/23 07:50:29;;;;;;;13.57;8.68;;;;;;;;;;5024144;28;20134;-56
2022/06/23 07:52:56;;;;;;;14.13;8.95;;;;;;;;;;5049769;28;20101;-53
2022/06/23 07:55:24;;;;;;;16.40;9.15;;;;;;;;;;5049705;28;20483;-56
2022/06/23 07:57:51;;;;;;;8.65;7.18;;;;;;;;;;5046698;28;20045;-51
2022/06/23 08:00:17;;;;;;;9.50;7.47;;;24.70;99.90;;;;;;5049513;28;20036;-53
2022/06/23 08:02:53;;;;;;;11.23;6.80;;;24.50;99.90;;;;;;5052367;28;20105;-55
2022/06/23 08:05:24;;;;;;;8.52;6.80;;;25.10;99.90;;;;;;5036781;28;20041;-52
2022/06/23 08:07:50;;;;;;;9.40;6.45;;;24.90;99.90;;;;;;5053156;28;20040;-54
2022/06/23 08:10:24;;;;;;;10.27;6.68;;;25.10;99.90;;;;;;5089368;27;20035;-52
2022/06/23 08:27:21;;;;;;;9.57;7.93;;;25.40;99.90;;;;;;5135593;27;20396;-50
2022/06/23 08:30:14;;;;;;;9.65;6.97;;;25.90;99.90;;;;;;5109329;28;20128;-48
2022/06/23 08:32:44;;;;;;;8.13;7.25;;;25.90;99.90;;;;;;5116623;28;20039;-49
2022/06/23 08:35:52;;;;;;;9.38;7.22;;;25.90;99.90;;;;;;5105146;28;20115;-48
2022/06/23 08:38:23;;;;;;;11.05;6.53;;;25.90;99.90;;;;;;5057436;28;20035;-49
2022/06/23 08:41:10;;;;;;;10.23;6.97;;;26.00;99.90;;;;;;5055305;28;20025;-50
2022/06/23 08:44:01;;;;;;;9.27;6.78;;;26.20;99.90;;;;;;5055120;28;20044;-49
2022/06/23 08:46:45;;;;;;;;;;;26.50;99.90;;;;;;5056464;28;20155;-47
2022/06/23 08:49:17;;;;;;;9.55;5.80;;;26.00;99.90;;;;;;5051518;28;19987;-47
2022/06/23 08:52:12;;;;;;;6.15;5.55;;;25.90;99.90;;;;;;5053511;28;20664;-47
2022/06/23 08:54:43;;;;;;;11.05;6.03;;;26.10;99.90;;;;;;5054678;28;20468;-48
2022/06/23 08:57:18;;;;;;;9.02;5.43;;;25.90;99.90;;;;;;5055942;28;20177;-49
2022/06/23 08:59:47;;;;;;;7.88;5.28;;;25.80;99.90;;;;;;5057974;28;20037;-50
2022/06/23 09:02:17;;;;;;;6.78;5.05;;;26.00;99.90;;;;;;5066560;28;20403;-50
2022/06/23 09:04:49;;;;;;;9.90;5.32;;;;;;;;;;5057157;28;20027;-47
2022/06/23 09:07:36;;;;;;;9.02;5.07;;;26.90;99.90;;;;;;5040753;28;20120;-50
2022/06/23 09:10:11;;;;;;;7.50;5.43;;;27.00;99.90;;;;;;5102614;28;20032;-49
2022/06/23 09:12:48;;;;;;;6.93;4.50;;;26.90;99.90;;;;;;5109883;28;20101;-48
2022/06/23 09:15:32;;;;;;;7.53;5.20;;;;;;;;;;5104605;28;20078;-47
2022/06/23 09:17:58;;;;;;;8.60;6.03;;;;;;;;;;5121771;27;20089;-48
2022/06/23 09:20:43;;;;;;;6.25;4.60;;;;;;;;;;5108718;28;20046;-48
2022/06/23 09:23:27;;;;;;;8.57;4.88;;;;;;;;;;5108864;28;20103;-50
2022/06/23 09:25:59;;;;;;;9.73;4.78;;;;;;;;;;5111110;28;20047;-48
2022/06/23 09:28:34;;;;;;;8.60;5.90;;;;;;;;;;5095025;28;20036;-50
2022/06/23 09:31:20;;;;;;;9.63;5.90;;;;;;;;;;5098469;28;20059;-49
2022/06/23 09:33:58;;;;;;;7.63;5.45;;;28.30;99.90;;;;;;5095165;28;20553;-50
2022/06/23 09:36:42;;;;;;;7.90;5.55;;;28.30;99.90;;;;;;5092036;28;20122;-49
2022/06/23 09:39:25;;;;;;;8.45;5.72;;;28.50;99.90;;;;;;5097870;28;20102;-50
2022/06/23 09:42:05;;;;;;;7.65;5.38;;;28.60;99.90;;;;;;5096425;28;20035;-48
2022/06/23 09:44:47;;;;;;;9.48;5.65;;;;;;;;;;5096749;28;20107;-48
2022/06/23 09:47:25;;;;;;;10.05;5.80;;;;;;;;;;5096073;28;20028;-48
2022/06/23 09:50:11;;;;;;;10.60;6.57;;;;;;;;;;5098492;28;20031;-49
2022/06/23 09:52:56;;;;;;;8.77;5.95;;;;;;;;;;5089831;28;20176;-49
2022/06/23 09:55:28;;;;;;;7.38;5.97;;;;;;;;;;5094052;28;20059;-48
2022/06/23 09:58:13;;;;;;;6.93;6.15;;;;;;;;;;5095986;28;20036;-48
2022/06/23 10:00:52;;;;;;;11.10;6.05;;;;;;;;;;5094431;28;20027;-50
2022/06/23 10:03:36;;;;;;;14.68;7.25;;;;;;;;;;5097921;28;20451;-47
2022/06/23 10:06:08;;;;;;;7.47;5.50;;;;;;;;;;5101352;28;20035;-48
2022/06/23 10:09:02;;;;;;;10.95;5.53;;;30.50;99.90;;;;;;5109544;27;20032;-49
2022/06/23 10:11:58;;;;;;;10.80;5.65;;;29.50;99.90;;;;;;5095852;28;20057;-52
2022/06/23 10:14:46;;;;;;;10.15;4.93;;;29.40;99.90;;;;;;5108101;28;20108;-52
2022/06/23 10:17:19;;;;;;;6.78;4.93;;;29.40;99.90;;;;;;5095012;28;20050;-51
2022/06/23 10:20:09;;;;;;;8.45;4.55;;;29.70;99.90;;;;;;5100570;28;20088;-53
2022/06/23 10:23:01;;;;;;;9.90;5.22;;;29.60;99.90;;;;;;5076306;28;20108;-50
2022/06/23 10:25:44;;;;;;;11.52;5.65;;;29.50;99.90;;;;;;5032622;28;20687;-53
2022/06/23 10:28:12;;;;;;;7.50;4.57;;;29.60;99.90;;;;;;5029273;28;20044;-53
2022/06/23 10:31:13;;;;;;;9.15;4.63;;;29.00;99.90;;;;;;5029541;28;20037;-53
2022/06/23 10:34:14;;;;;;;4.88;4.38;;;29.20;99.90;;;;;;5010913;28;20370;-51
2022/06/23 10:37:23;;;;;;;7.45;5.10;;;28.80;99.90;;;;;;4962967;28;20050;-49
2022/06/23 10:40:14;;;;;;;6.10;4.40;;;28.90;99.90;;;;;;4951856;28;20027;-50
2022/06/23 10:43:11;;;;;;;4.90;4.25;;;29.40;99.90;;;;;;4953376;28;20534;-51
2022/06/23 10:45:56;;;;;;;10.52;4.90;;;29.50;99.90;;;;;;4904478;29;20097;-52
2022/06/23 10:48:33;;;;;;;9.02;5.15;;;29.40;99.90;;;;;;4914583;29;20051;-50
2022/06/23 10:51:27;;;;;;;5.43;4.45;;;29.80;99.90;;;;;;4913244;29;20040;-54
2022/06/23 10:54:05;;;;;;;5.60;4.55;;;30.00;99.90;;;;;;4910698;29;20055;-54
2022/06/23 10:56:39;;;;;;;7.70;4.93;;;30.30;99.90;;;;;;4906260;29;20052;-52
2022/06/23 10:59:20;;;;;;;6.85;4.30;;;30.10;99.90;;;;;;4913258;29;20040;-48
2022/06/23 11:02:05;;;;;;;9.80;7.20;;;30.00;99.90;;;;;;4908252;29;20044;-49
2022/06/23 11:04:49;;;;;;;6.03;4.90;;;;;;;;;;4942035;28;20039;-50
2022/06/23 11:07:17;;;;;;;8.45;6.10;;;31.10;99.90;;;;;;4946329;28;20039;-50
2022/06/23 11:10:11;;;;;;;8.60;3.90;;;31.00;99.90;;;;;;4956044;28;20126;-51
2022/06/23 11:12:42;;;;;;;6.13;3.60;;;;;;;;;;4938976;29;20042;-48
2022/06/23 11:15:22;;;;;;;8.45;4.53;;;31.10;99.90;;;;;;4995120;28;20430;-51
2022/06/23 11:18:15;;;;;;;5.88;3.20;;;30.70;99.90;;;;;;4993691;28;20030;-46
2022/06/23 11:20:49;;;;;;;9.07;4.05;;;31.10;99.90;;;;;;4989617;28;20033;-50
2022/06/23 11:23:27;;;;;;;6.40;4.03;;;30.90;99.90;;;;;;5102310;28;20044;-51
2022/06/23 11:26:12;;;;;;;6.10;4.15;;;30.20;99.90;;;;;;5099521;28;20518;-50
2022/06/23 11:29:03;;;;;;;7.90;4.20;;;29.70;99.90;;;;;;5103122;28;20382;-50
2022/06/23 11:31:47;;;;;;;4.72;3.40;;;29.30;99.90;;;;;;5103450;28;20430;-50
2022/06/23 11:34:32;;;;;;;6.68;4.13;;;29.10;99.90;;;;;;5094395;28;20027;-51
2022/06/23 11:37:20;;;;;;;6.63;3.88;;;28.80;99.90;;;;;;5107283;27;20044;-49
2022/06/23 11:40:00;;;;;;;8.38;4.28;;;28.70;99.90;;;;;;5087872;28;20039;-50
2022/06/23 11:43:03;;;;;;;6.28;3.58;;;28.80;99.90;;;;;;5093391;28;20391;-48
2022/06/23 11:46:07;;;;;;;9.23;4.55;;;28.60;99.90;;;;;;5073639;28;20031;-49
2022/06/23 11:48:39;;;;;;;5.47;3.75;;;28.70;99.90;;;;;;5097050;28;20379;-52
2022/06/23 11:51:23;;;;;;;;;;;28.70;99.90;;;;;;5094048;28;20104;-51
2022/06/23 11:54:07;;;;;;;6.85;3.58;;;;;;;;;;5115408;27;19907;-49
2022/06/23 11:56:57;;;;;;;6.85;3.80;;;28.30;99.90;;;;;;5094522;28;20042;-53
2022/06/23 11:59:29;;;;;;;6.82;4.07;;;;;;;;;;5100849;28;20031;-48
2022/06/23 12:01:55;;;;;;;7.85;4.22;;;31.00;99.90;;;;;;5096510;28;20028;-47
2022/06/23 12:04:21;;;;;;;7.53;4.07;;;29.40;99.90;;;;;;5099767;28;20492;-48
2022/06/23 12:06:53;;;;;;;10.50;4.90;;;29.60;99.90;;;;;;5089388;28;20047;-48
2022/06/23 12:09:21;;;;;;;;;;;29.00;99.90;;;;;;5088783;28;20023;-48
2022/06/23 12:11:48;;;;;;;6.82;4.57;;;28.60;99.90;;;;;;5057279;28;19952;-48
2022/06/23 12:14:16;;;;;;;7.30;4.35;;;28.40;99.90;;;;;;5090781;28;20028;-49
2022/06/23 12:16:54;;;;;;;5.82;4.57;;;28.50;99.90;;;;;;5091370;28;20036;-49
2022/06/23 12:19:26;;;;;;;8.77;5.53;;;28.40;99.90;;;;;;5093073;28;20081;-49
2022/06/23 12:22:01;;;;;;;7.07;4.65;;;27.90;99.90;;;;;;5091642;28;20043;-46
2022/06/23 12:24:50;;;;;;;7.18;4.13;;;27.70;99.90;;;;;;5094761;28;20390;-50
2022/06/23 12:27:22;;;;;;;8.77;5.22;;;27.80;99.90;;;;;;5096997;28;20036;-48
2022/06/23 12:30:14;;;;;;;10.43;4.50;;;;;;;;;;5100301;28;20027;-50
2022/06/23 12:32:50;;;;;;;8.50;4.20;;;;;;;;;;5017905;28;20041;-50
2022/06/23 12:35:23;;;;;;;8.10;4.03;;;;;;;;;;5037730;28;20056;-51
2022/06/23 12:37:57;;;;;;;5.47;3.88;;;;;;;;;;5027999;28;20455;-50
2022/06/23 12:40:33;;;;;;;8.75;3.95;;;28.60;99.90;;;;;;5040011;28;20139;-50
2022/06/23 12:43:29;;;;;;;5.97;3.85;;;28.70;99.90;;;;;;5028120;28;20041;-50
2022/06/23 12:46:06;;;;;;;9.07;3.88;;;28.50;99.90;;;;;;5041241;28;20455;-50
2022/06/23 12:49:08;;;;;;;5.13;3.17;;;28.20;99.90;;;;;;5043511;28;20025;-50
2022/06/23 12:51:37;;;;;;;6.53;3.03;;;28.10;99.90;;;;;;5037120;28;20124;-51
2022/06/23 12:54:27;;;;;;;7.93;3.05;;;28.20;99.90;;;;;;5034784;28;20091;-50
2022/06/23 12:57:11;;;;;;;4.78;3.03;;;28.80;99.90;;;;;;5042822;28;20165;-50
2022/06/23 12:59:55;;;;;;;5.13;3.20;;;28.90;99.90;;;;;;5043935;28;20112;-50
2022/06/23 13:02:42;;;;;;;4.63;3.20;;;28.90;99.90;;;;;;5041300;28;20037;-50
2022/06/23 13:05:24;;;;;;;12.55;3.67;;;28.80;99.90;;;;;;5047898;28;20480;-50
2022/06/23 13:08:13;;;;;;;6.43;3.40;;;28.90;99.90;;;;;;5057049;28;20029;-50
2022/06/23 13:11:00;;;;;;;5.55;3.08;;;28.60;99.90;;;;;;5049401;28;20037;-51
2022/06/23 13:13:35;;;;;;;7.95;4.30;;;28.40;99.90;;;;;;5051835;28;20453;-52
2022/06/23 13:16:12;;;;;;;4.90;3.70;;;28.30;99.90;;;;;;5038730;28;20045;-51
2022/06/23 13:18:44;;;;;;;5.50;3.47;;;28.10;99.90;;;;;;5046445;28;20045;-50
2022/06/23 13:21:30;;;;;;;3.67;2.97;;;28.00;99.90;;;;;;5045188;28;20036;-52
2022/06/23 13:23:59;;;;;;;4.50;2.97;;;28.10;99.90;;;;;;5048523;28;20119;-50
2022/06/23 13:26:36;;;;;;;4.95;3.67;;;28.50;99.90;;;;;;5065007;28;20133;-50
2022/06/23 13:29:06;;;;;;;4.15;2.95;;;28.80;99.90;;;;;;5046443;28;20099;-51
2022/06/23 13:31:59;;;;;;;3.45;2.58;;;28.60;99.90;;;;;;5047524;28;20032;-51
2022/06/23 13:34:35;;;;;;;4.50;2.58;;;28.30;99.90;;;;;;5060341;28;20124;-50
2022/06/23 13:37:14;;;;;;;5.80;3.05;;;28.40;99.90;;;;;;5051409;28;20510;-50
2022/06/23 13:39:58;;;;;;;6.47;3.35;;;28.40;99.90;;;;;;5042077;28;20025;-50
2022/06/23 13:42:39;;;;;;;4.60;3.63;;;28.20;99.90;;;;;;5051149;28;20147;-51
2022/06/23 13:45:25;;;;;;;4.97;3.15;;;28.40;99.90;;;;;;5060430;28;20035;-51
2022/06/23 13:48:06;;;;;;;5.28;2.95;;;29.20;99.90;;;;;;5078139;28;20058;-51
2022/06/23 13:50:41;;;;;;;2.37;2.17;;;29.60;99.90;;;;;;5095933;28;20036;-50
2022/06/23 13:53:33;;;;;;;4.68;2.50;;;29.70;99.90;;;;;;5096493;28;20079;-51
2022/06/23 13:56:16;;;;;;;3.35;2.33;;;29.90;99.90;;;;;;5095708;28;20075;-50
2022/06/23 13:59:10;;;;;;;7.65;3.38;;;29.00;99.90;;;;;;5096917;28;20555;-51
2022/06/23 14:01:49;;;;;;;3.92;2.95;;;30.10;99.90;;;;;;5098610;28;20032;-50
2022/06/23 14:04:35;;;;;;;6.30;2.90;;;29.90;99.90;;;;;;5096079;28;20035;-50
2022/06/23 14:07:11;;;;;;;5.20;2.70;;;;;;;;;;5095927;28;20027;-51
2022/06/23 14:09:45;;;;;;;4.63;2.65;;;;;;;;;;5095966;28;20390;-51
2022/06/23 14:12:19;;;;;;;4.07;2.75;;;;;;;;;;5080631;28;20483;-51
2022/06/23 14:14:45;;;;;;;5.18;2.50;;;;;;;;;;5094475;28;20114;-50
2022/06/23 14:17:29;;;;;;;4.60;2.38;;;30.00;99.90;;;;;;5099664;28;20107;-51
2022/06/23 14:19:59;;;;;;;5.85;2.90;;;30.20;99.90;;;;;;5107092;28;20149;-52